Terminal Aerodrome Forecast
Issued by NWS Glasgow, MT

Home | Current Version | Previous Version | Text Only | Print | Product List | Glossary On
Versions: 1 2 3 4 5 6 7 8 9 10 11 12 13 14 15 16 17
000
FTUS45 KGGW 050529
TAFGGW
TAF
KGGW 050529Z 0506/0606 30012KT 3/4SM -SN BR VV005
     FM050800 31015G23KT 2SM -SN BR OVC009
     FM051300 31018KT P6SM OVC015
     FM051800 31018G28KT P6SM BKN015
     FM060300 31013KT P6SM BKN040=

USA.gov is the U.S. government's official web portal to all federal, state and local government web resources and services.